Time;durP1;ratioP1;P1;durP2;ratioP2;P2;SDS_P1;SDS_P2;PMS_P1;PMS_P2;Temp;Humidity;BMP_temperature;BMP_pressure;BME280_temperature;BME280_humidity;BME280_pressure;Samples;Min_cycle;Max_cycle;Signal;HPM_P1;HPM_P2
2021/10/01 00:00:23;;;;;;;1.33;0.68;;;13.60;99.90;;;;;;5015842;28;20184;-81
2021/10/01 00:02:49;;;;;;;6.00;0.90;;;13.60;99.90;;;;;;5016004;28;20225;-81
2021/10/01 00:05:14;;;;;;;1.35;0.68;;;13.70;99.90;;;;;;5015281;28;20176;-81
2021/10/01 00:07:40;;;;;;;3.70;0.93;;;13.60;99.90;;;;;;5015271;28;20168;-79
2021/10/01 00:10:06;;;;;;;3.78;1.25;;;13.60;99.90;;;;;;5015584;28;20193;-78
2021/10/01 00:12:33;;;;;;;2.10;1.15;;;13.60;99.90;;;;;;5015227;28;20185;-78
2021/10/01 00:14:59;;;;;;;1.05;0.80;;;13.80;99.90;;;;;;5015429;28;20235;-79
2021/10/01 00:17:26;;;;;;;1.02;0.73;;;13.70;99.90;;;;;;5015306;28;20173;-83
2021/10/01 00:19:52;;;;;;;3.03;1.00;;;13.80;99.90;;;;;;5015216;28;20196;-79
2021/10/01 00:22:18;;;;;;;2.00;0.90;;;13.80;99.90;;;;;;5015162;28;20626;-80
2021/10/01 00:24:44;;;;;;;1.73;0.75;;;13.90;99.90;;;;;;5013826;28;20177;-82
2021/10/01 00:27:12;;;;;;;2.72;0.75;;;13.90;99.90;;;;;;5015405;28;20219;-80
2021/10/01 00:29:38;;;;;;;6.45;1.35;;;13.80;99.90;;;;;;5013843;28;20227;-81
2021/10/01 00:32:05;;;;;;;3.47;1.20;;;13.90;99.90;;;;;;5014818;28;20171;-81
2021/10/01 00:34:31;;;;;;;5.72;0.82;;;13.90;99.90;;;;;;5014747;28;20176;-83
2021/10/01 00:36:57;;;;;;;2.42;1.08;;;13.90;99.90;;;;;;5014812;28;20617;-80
2021/10/01 00:39:22;;;;;;;1.90;1.00;;;13.90;99.90;;;;;;5014900;28;20196;-79
2021/10/01 00:41:48;;;;;;;3.88;0.95;;;13.80;99.90;;;;;;5014877;28;20173;-80
2021/10/01 00:44:15;;;;;;;4.53;1.20;;;13.80;99.90;;;;;;5014910;28;20208;-78
2021/10/01 00:46:40;;;;;;;8.90;0.93;;;13.80;99.90;;;;;;5014770;28;20168;-79
2021/10/01 00:49:06;;;;;;;4.30;1.30;;;13.70;99.90;;;;;;5013293;28;20188;-81
2021/10/01 00:51:34;;;;;;;7.57;1.60;;;13.70;99.90;;;;;;5014326;28;20169;-79
2021/10/01 00:54:01;;;;;;;2.83;0.90;;;13.70;99.90;;;;;;5013087;28;20164;-79
2021/10/01 00:56:27;;;;;;;3.67;0.90;;;13.60;99.90;;;;;;5014740;28;20234;-81
2021/10/01 00:58:52;;;;;;;6.63;0.88;;;13.70;99.90;;;;;;5014658;28;20214;-80
2021/10/01 01:01:18;;;;;;;5.40;1.17;;;13.80;99.90;;;;;;5014285;28;20890;-80
2021/10/01 01:03:56;;;;;;;2.60;0.80;;;13.80;99.90;;;;;;5013187;28;20177;-83
2021/10/01 01:06:53;;;;;;;1.85;0.93;;;13.70;99.90;;;;;;5014119;28;20179;-80
2021/10/01 01:09:43;;;;;;;5.82;0.88;;;13.50;99.90;;;;;;5014329;28;20193;-79
2021/10/01 01:12:08;;;;;;;5.35;0.75;;;13.60;99.90;;;;;;5014085;28;20173;-81
2021/10/01 01:14:49;;;;;;;3.70;1.00;;;13.50;99.90;;;;;;5013848;28;20172;-80
2021/10/01 01:17:38;;;;;;;1.55;0.80;;;13.40;99.90;;;;;;5014269;28;20169;-78
2021/10/01 01:20:18;;;;;;;5.30;1.08;;;13.30;99.90;;;;;;5012067;28;20200;-80
2021/10/01 01:23:23;;;;;;;2.88;0.77;;;13.40;99.90;;;;;;5014389;28;20180;-81
2021/10/01 01:26:11;;;;;;;4.70;0.80;;;13.40;99.90;;;;;;4993209;28;20652;-80
2021/10/01 01:29:04;;;;;;;2.97;0.88;;;13.40;99.90;;;;;;5012764;28;20198;-79
2021/10/01 01:31:53;;;;;;;1.50;0.88;;;13.50;99.90;;;;;;5013824;28;20168;-79
2021/10/01 01:34:21;;;;;;;8.10;1.10;;;13.30;99.90;;;;;;5012889;28;20177;-80
2021/10/01 01:36:53;;;;;;;1.85;1.00;;;13.40;99.90;;;;;;5013833;28;20200;-81
2021/10/01 01:39:19;;;;;;;1.15;0.75;;;13.40;99.90;;;;;;5012575;28;20196;-80
2021/10/01 01:41:46;;;;;;;1.75;0.85;;;13.50;99.90;;;;;;5013762;28;20235;-80
2021/10/01 01:44:12;;;;;;;7.13;1.10;;;13.50;99.90;;;;;;5013842;28;20179;-85
2021/10/01 01:46:41;;;;;;;3.78;1.00;;;13.30;99.90;;;;;;5013897;28;20192;-78
2021/10/01 01:49:08;;;;;;;2.47;0.80;;;13.30;99.90;;;;;;5012136;28;20223;-78
2021/10/01 01:51:35;;;;;;;2.45;1.05;;;13.30;99.90;;;;;;5012900;28;20252;-79
2021/10/01 01:54:01;;;;;;;2.75;0.80;;;13.30;99.90;;;;;;5013208;28;20168;-79
2021/10/01 01:56:32;;;;;;;5.10;1.17;;;13.30;99.90;;;;;;5013471;28;20259;-80
2021/10/01 01:59:00;;;;;;;2.78;1.42;;;13.40;99.90;;;;;;5013583;28;20218;-78
2021/10/01 02:01:29;;;;;;;4.70;1.00;;;13.50;99.90;;;;;;5013513;28;20251;-82
2021/10/01 02:03:55;;;;;;;6.60;1.23;;;13.60;99.90;;;;;;5013209;28;20630;-81
2021/10/01 02:06:22;;;;;;;2.63;0.82;;;13.60;99.90;;;;;;5013108;28;20173;-83
2021/10/01 02:08:48;;;;;;;2.38;1.02;;;13.60;99.90;;;;;;5012112;28;20188;-81
2021/10/01 02:11:17;;;;;;;1.77;0.80;;;13.60;99.90;;;;;;5013198;28;20172;-80
2021/10/01 02:13:45;;;;;;;5.35;0.90;;;13.50;99.90;;;;;;5013272;28;20160;-80
2021/10/01 02:16:12;;;;;;;5.10;0.70;;;13.50;99.90;;;;;;5012073;28;20204;-81
2021/10/01 02:18:40;;;;;;;1.77;0.90;;;13.40;99.90;;;;;;5013063;28;20192;-83
2021/10/01 02:21:07;;;;;;;3.17;0.88;;;13.40;99.90;;;;;;5013392;28;20196;-79
2021/10/01 02:23:32;;;;;;;2.75;0.70;;;13.50;99.90;;;;;;5013359;28;20616;-81
2021/10/01 02:28:54;;;;;;;3.22;0.75;;;13.50;99.90;;;;;;5013828;28;20218;-82
2021/10/01 02:31:33;;;;;;;2.03;1.00;;;13.50;99.90;;;;;;5013311;28;20172;-78
2021/10/01 02:34:02;;;;;;;5.97;1.13;;;13.50;99.90;;;;;;5013223;28;20184;-83
2021/10/01 02:36:28;;;;;;;4.95;1.40;;;13.30;99.90;;;;;;5013416;28;20207;-80
2021/10/01 02:38:54;;;;;;;2.72;0.98;;;13.30;99.90;;;;;;5011979;28;20198;-80
2021/10/01 02:41:20;;;;;;;3.25;0.82;;;13.30;99.90;;;;;;5011459;28;20172;-80
2021/10/01 02:43:45;;;;;;;2.05;1.25;;;13.30;99.90;;;;;;5013231;28;20291;-81
2021/10/01 02:46:11;;;;;;;3.35;0.90;;;13.30;99.90;;;;;;5011904;28;20237;-81
2021/10/01 02:48:37;;;;;;;1.10;0.90;;;13.40;99.90;;;;;;5013031;28;20184;-80
2021/10/01 02:51:13;;;;;;;2.53;0.68;;;13.30;99.90;;;;;;5013243;28;20172;-77
2021/10/01 02:53:51;;;;;;;1.20;0.65;;;13.20;99.90;;;;;;5013071;28;20168;-81
2021/10/01 02:56:32;;;;;;;3.15;0.70;;;13.20;99.90;;;;;;5012733;28;20200;-82
2021/10/01 02:59:02;;;;;;;2.35;1.10;;;13.30;99.90;;;;;;5012637;28;20188;-77
2021/10/01 03:01:29;;;;;;;6.55;0.80;;;13.20;99.90;;;;;;5012938;28;20215;-83
2021/10/01 03:04:01;;;;;;;6.45;1.10;;;13.10;99.90;;;;;;5012956;28;20168;-80
2021/10/01 03:06:31;;;;;;;1.45;0.70;;;13.10;99.90;;;;;;5012870;28;20173;-79
2021/10/01 03:08:57;;;;;;;4.18;1.33;;;13.20;99.90;;;;;;5012731;28;20206;-79
2021/10/01 03:11:28;;;;;;;4.80;0.85;;;13.30;99.90;;;;;;5012791;28;20176;-79
2021/10/01 03:13:54;;;;;;;3.03;0.70;;;13.20;99.90;;;;;;5014997;28;20164;-80
2021/10/01 03:16:21;;;;;;;2.47;0.80;;;13.20;99.90;;;;;;5016693;28;20318;-78
2021/10/01 03:18:48;;;;;;;7.13;1.02;;;13.10;99.90;;;;;;5016456;28;20188;-81
2021/10/01 03:21:17;;;;;;;2.13;0.80;;;13.00;99.90;;;;;;5016617;28;20264;-82
2021/10/01 03:23:44;;;;;;;1.45;0.85;;;13.10;99.90;;;;;;5016895;28;20175;-81
2021/10/01 03:26:11;;;;;;;2.35;0.90;;;13.00;99.90;;;;;;5016822;28;20176;-80
2021/10/01 03:28:38;;;;;;;5.72;0.80;;;13.10;99.90;;;;;;5016683;28;20582;-79
2021/10/01 03:31:05;;;;;;;3.78;1.10;;;13.20;99.90;;;;;;5016676;28;20175;-82
2021/10/01 03:33:31;;;;;;;1.70;0.80;;;13.10;99.90;;;;;;5016404;28;20176;-83
2021/10/01 03:35:57;;;;;;;3.30;0.95;;;13.00;99.90;;;;;;5017231;28;20283;-82
2021/10/01 03:38:25;;;;;;;3.22;0.88;;;13.00;99.90;;;;;;5015249;28;20203;-82
2021/10/01 03:40:52;;;;;;;3.30;0.85;;;12.90;99.90;;;;;;5016363;28;20574;-82
2021/10/01 03:43:17;;;;;;;1.73;0.60;;;13.00;99.90;;;;;;5016330;28;20164;-81
2021/10/01 03:45:44;;;;;;;2.22;0.60;;;13.00;99.90;;;;;;5016318;28;20169;-82
2021/10/01 03:48:10;;;;;;;6.25;1.13;;;12.90;99.90;;;;;;5016551;28;20234;-79
2021/10/01 03:50:36;;;;;;;1.65;0.98;;;12.90;99.90;;;;;;5014717;28;20601;-82
2021/10/01 03:53:03;;;;;;;3.85;0.60;;;13.00;99.90;;;;;;5014534;28;20175;-82
2021/10/01 03:55:29;;;;;;;2.95;1.08;;;13.00;99.90;;;;;;5015712;28;20228;-83
2021/10/01 03:57:55;;;;;;;1.25;0.73;;;13.00;99.90;;;;;;5015760;28;20214;-81
2021/10/01 04:00:21;;;;;;;1.95;0.88;;;13.00;99.90;;;;;;5015921;28;20307;-82
2021/10/01 04:02:47;;;;;;;10.95;0.77;;;13.10;99.90;;;;;;5015627;28;20625;-80
2021/10/01 04:05:13;;;;;;;1.10;0.80;;;13.10;99.90;;;;;;5015796;28;20190;-83
2021/10/01 04:07:39;;;;;;;5.60;1.10;;;13.00;99.90;;;;;;5016057;28;20165;-79
2021/10/01 04:10:06;;;;;;;4.40;1.48;;;13.00;99.90;;;;;;5015726;28;20649;-83
2021/10/01 04:12:33;;;;;;;3.58;0.90;;;13.00;99.90;;;;;;5015233;28;20537;-80
2021/10/01 04:14:59;;;;;;;4.28;0.90;;;13.10;99.90;;;;;;5015536;28;20190;-87
2021/10/01 04:17:24;;;;;;;4.60;0.93;;;13.00;99.90;;;;;;5014274;28;20212;-84
2021/10/01 04:19:50;;;;;;;2.50;1.27;;;13.00;99.90;;;;;;5015475;28;20188;-79
2021/10/01 04:22:17;;;;;;;5.25;1.08;;;13.00;99.90;;;;;;5015345;28;20590;-80
2021/10/01 04:24:43;;;;;;;5.32;1.40;;;13.20;99.90;;;;;;5014583;28;20179;-81
2021/10/01 04:27:09;;;;;;;5.70;1.10;;;13.10;99.90;;;;;;5014048;28;20181;-83
2021/10/01 04:29:35;;;;;;;3.25;1.08;;;13.20;99.90;;;;;;5015088;28;20188;-79
2021/10/01 04:32:04;;;;;;;2.88;1.05;;;13.10;99.90;;;;;;5015418;28;20255;-81
2021/10/01 04:34:33;;;;;;;6.53;0.80;;;13.00;99.90;;;;;;5015271;28;20169;-81
2021/10/01 04:36:59;;;;;;;8.23;1.20;;;13.00;99.90;;;;;;5014284;28;20184;-81
2021/10/01 04:39:25;;;;;;;3.22;1.20;;;12.80;99.90;;;;;;5015134;28;20181;-81
2021/10/01 04:41:51;;;;;;;3.13;0.90;;;12.90;99.90;;;;;;5014993;28;20172;-82
2021/10/01 04:44:18;;;;;;;6.90;1.00;;;13.00;99.90;;;;;;5014910;28;20234;-82
2021/10/01 04:46:44;;;;;;;1.75;0.70;;;13.00;99.90;;;;;;5014787;28;20160;-79
2021/10/01 04:49:10;;;;;;;7.82;1.05;;;12.90;99.90;;;;;;5014970;28;20220;-80
2021/10/01 04:51:35;;;;;;;1.92;0.88;;;12.90;99.90;;;;;;5014887;28;20180;-80
2021/10/01 04:54:01;;;;;;;5.38;1.30;;;13.00;99.90;;;;;;5015081;28;20179;-81
2021/10/01 04:56:27;;;;;;;1.02;0.90;;;13.00;99.90;;;;;;5014759;28;20207;-83
2021/10/01 04:58:52;;;;;;;1.67;0.50;;;12.80;99.90;;;;;;5014546;28;20192;-79
2021/10/01 05:01:18;;;;;;;3.00;0.98;;;12.90;99.90;;;;;;5014669;28;20223;-81
2021/10/01 05:03:44;;;;;;;3.05;1.00;;;12.80;99.90;;;;;;5012952;28;20164;-82
2021/10/01 05:06:09;;;;;;;3.17;1.05;;;12.90;99.90;;;;;;5014400;28;20173;-82
2021/10/01 05:08:35;;;;;;;2.40;0.90;;;12.90;99.90;;;;;;5014459;28;20645;-83
2021/10/01 05:11:00;;;;;;;4.18;0.80;;;13.00;99.90;;;;;;5014835;28;20248;-82
2021/10/01 05:13:26;;;;;;;3.33;1.50;;;13.10;99.90;;;;;;5014731;28;20176;-83
2021/10/01 05:15:51;;;;;;;2.30;1.00;;;13.10;99.90;;;;;;5014431;28;20660;-80
2021/10/01 05:18:18;;;;;;;2.95;0.90;;;13.10;99.90;;;;;;5014268;28;20203;-84
2021/10/01 05:20:44;;;;;;;2.88;0.70;;;13.00;99.90;;;;;;5014607;28;20614;-80
2021/10/01 05:23:10;;;;;;;1.70;0.90;;;13.00;99.90;;;;;;5014661;28;20169;-79
2021/10/01 05:25:36;;;;;;;3.08;1.13;;;13.00;99.90;;;;;;5014307;28;20234;-81
2021/10/01 05:28:02;;;;;;;5.15;0.75;;;13.10;99.90;;;;;;5013924;28;20192;-79
2021/10/01 05:30:27;;;;;;;4.97;1.20;;;13.10;99.90;;;;;;5013825;28;20275;-80
2021/10/01 05:32:53;;;;;;;7.60;1.40;;;13.20;99.90;;;;;;5013541;28;20310;-81
2021/10/01 05:35:19;;;;;;;8.35;1.50;;;13.10;99.90;;;;;;5013100;28;20215;-81
2021/10/01 05:37:45;;;;;;;3.50;1.10;;;13.10;99.90;;;;;;5013852;28;20161;-83
2021/10/01 05:40:12;;;;;;;2.22;0.60;;;13.20;99.90;;;;;;5012709;28;20188;-80
2021/10/01 05:42:38;;;;;;;5.18;1.08;;;13.30;99.90;;;;;;5013635;28;20255;-85
2021/10/01 05:45:06;;;;;;;6.13;1.08;;;13.40;99.90;;;;;;5013195;28;20701;-80
2021/10/01 05:47:31;;;;;;;8.40;1.23;;;13.30;99.90;;;;;;5011922;28;20181;-83
2021/10/01 05:50:01;;;;;;;1.52;0.77;;;13.30;99.90;;;;;;5013507;28;20611;-83
2021/10/01 05:54:59;;;;;;;3.50;1.13;;;13.30;99.90;;;;;;5013050;28;20201;-80
2021/10/01 05:57:25;;;;;;;3.15;0.93;;;13.30;99.90;;;;;;5013500;28;20276;-80
2021/10/01 05:59:52;;;;;;;4.38;1.08;;;13.30;99.90;;;;;;5012122;28;20676;-80
2021/10/01 06:02:21;;;;;;;6.72;1.02;;;13.30;99.90;;;;;;5012301;28;20188;-81
2021/10/01 06:04:50;;;;;;;5.20;1.10;;;13.30;99.90;;;;;;5012055;28;20165;-80
2021/10/01 06:07:16;;;;;;;1.45;1.02;;;13.30;99.90;;;;;;5012962;28;20179;-82
2021/10/01 06:09:43;;;;;;;2.80;1.00;;;13.40;99.90;;;;;;5013178;28;20192;-79
2021/10/01 06:12:10;;;;;;;5.75;0.93;;;13.40;99.90;;;;;;5012794;28;20307;-78
2021/10/01 06:14:36;;;;;;;4.07;0.93;;;13.40;99.90;;;;;;5012812;28;20175;-79
2021/10/01 06:17:03;;;;;;;2.15;1.02;;;13.50;99.90;;;;;;5012986;28;20204;-81
2021/10/01 06:19:28;;;;;;;2.30;1.38;;;13.40;99.90;;;;;;5013215;28;20195;-80
2021/10/01 06:21:56;;;;;;;2.67;1.13;;;13.40;99.90;;;;;;5012912;28;20164;-80
2021/10/01 06:24:22;;;;;;;6.82;1.38;;;13.50;99.90;;;;;;5013167;28;20171;-82
2021/10/01 06:26:48;;;;;;;7.35;1.00;;;13.50;99.90;;;;;;5012036;28;20625;-83
2021/10/01 06:29:17;;;;;;;9.88;1.20;;;13.40;99.90;;;;;;5012364;28;20192;-81
2021/10/01 06:31:44;;;;;;;8.40;1.08;;;13.50;99.90;;;;;;5012271;28;20250;-80
2021/10/01 06:34:10;;;;;;;3.75;0.82;;;13.40;99.90;;;;;;5011745;28;20261;-82
2021/10/01 06:36:36;;;;;;;1.70;0.95;;;13.40;99.90;;;;;;5011791;28;20606;-80
2021/10/01 06:39:03;;;;;;;3.53;1.08;;;13.50;99.90;;;;;;5010615;28;20632;-78
2021/10/01 06:41:29;;;;;;;4.32;1.00;;;13.50;99.90;;;;;;5011929;28;20625;-78
2021/10/01 06:44:00;;;;;;;2.97;0.93;;;13.50;99.90;;;;;;5012136;28;20184;-81
2021/10/01 08:19:25;;;;;;;1.77;1.25;;;15.80;99.90;;;;;;5034140;28;20618;-81
2021/10/01 08:21:54;;;;;;;1.67;1.02;;;15.70;99.90;;;;;;5035093;28;20247;-87
2021/10/01 08:24:20;;;;;;;2.17;0.75;;;15.90;99.90;;;;;;5035256;28;20178;-87
2021/10/01 08:26:47;;;;;;;4.80;1.02;;;16.00;99.90;;;;;;5035169;28;20524;-86
2021/10/01 08:29:14;;;;;;;2.58;0.90;;;16.20;99.90;;;;;;5031826;28;20212;-84
2021/10/01 08:31:40;;;;;;;3.65;0.98;;;16.30;99.90;;;;;;5033781;28;20168;-83
2021/10/01 08:34:06;;;;;;;5.72;0.95;;;16.50;99.90;;;;;;5033871;28;20188;-81
2021/10/01 08:36:33;;;;;;;4.60;1.30;;;16.30;99.90;;;;;;5034349;28;20265;-80
2021/10/01 08:38:58;;;;;;;3.60;0.95;;;16.40;99.90;;;;;;5034777;28;20215;-83
2021/10/01 08:41:24;;;;;;;9.70;1.42;;;16.50;99.90;;;;;;5035086;28;20211;-82
2021/10/01 08:43:51;;;;;;;6.70;1.30;;;16.50;99.90;;;;;;5035884;28;20199;-81
2021/10/01 08:46:18;;;;;;;8.52;1.40;;;16.50;99.90;;;;;;5035509;28;20210;-81
2021/10/01 08:48:45;;;;;;;3.17;1.00;;;16.70;99.90;;;;;;5033243;28;20196;-82
2021/10/01 08:51:12;;;;;;;6.75;1.23;;;16.70;99.90;;;;;;5035496;28;20164;-80
2021/10/01 08:53:38;;;;;;;4.40;1.30;;;16.70;99.90;;;;;;5034858;28;20172;-84
2021/10/01 08:56:04;;;;;;;11.73;2.10;;;16.90;99.90;;;;;;5035389;28;20210;-85
2021/10/01 08:58:30;;;;;;;5.47;1.38;;;17.10;99.90;;;;;;5034828;28;20191;-84
2021/10/01 09:01:00;;;;;;;1.95;1.13;;;16.90;99.90;;;;;;5036182;28;20186;-80
2021/10/01 09:03:27;;;;;;;10.77;1.38;;;16.80;99.90;;;;;;5038384;28;20183;-85
2021/10/01 09:05:53;;;;;;;1.88;0.90;;;16.90;99.90;;;;;;5034474;28;20237;-80
2021/10/01 09:08:24;;;;;;;0.63;0.63;;;17.20;99.90;;;;;;5034336;28;20163;-80
2021/10/01 09:11:05;;;;;;;8.63;1.17;;;17.40;99.90;;;;;;5034409;28;20171;-85
2021/10/01 09:13:34;;;;;;;7.35;1.20;;;17.30;99.90;;;;;;5035205;28;20202;-84
2021/10/01 09:16:01;;;;;;;5.60;1.15;;;17.40;99.90;;;;;;5034327;28;20195;-86
2021/10/01 09:18:32;;;;;;;5.40;1.00;;;17.20;99.90;;;;;;5034807;28;20226;-82
2021/10/01 09:21:06;;;;;;;5.30;1.08;;;17.20;99.90;;;;;;5034982;28;20160;-79
2021/10/01 09:23:35;;;;;;;5.88;1.70;;;17.10;99.90;;;;;;5036034;28;20172;-84
2021/10/01 09:26:20;;;;;;;2.85;1.05;;;16.80;99.90;;;;;;5034844;28;20171;-79
2021/10/01 09:28:55;;;;;;;1.55;1.08;;;17.00;99.90;;;;;;5034699;28;20183;-88
2021/10/01 09:31:42;;;;;;;3.00;0.93;;;17.10;99.90;;;;;;5034261;28;20171;-78
2021/10/01 09:34:32;;;;;;;4.25;0.77;;;17.00;99.90;;;;;;5033267;28;20183;-78
2021/10/01 09:37:04;;;;;;;11.90;1.35;;;16.80;99.90;;;;;;5034172;28;20248;-84
2021/10/01 09:39:35;;;;;;;9.85;1.38;;;17.00;99.90;;;;;;5033929;28;20190;-84
2021/10/01 09:42:47;;;;;;;3.45;1.20;;;16.90;99.90;;;;;;5034401;28;20178;-80
2021/10/01 09:45:14;;;;;;;10.93;1.50;;;17.10;99.90;;;;;;5006040;28;20182;-83
2021/10/01 09:47:46;;;;;;;3.60;1.23;;;17.10;99.90;;;;;;5033322;28;20172;-85
2021/10/01 09:50:27;;;;;;;7.82;2.00;;;17.30;99.90;;;;;;5033591;28;20195;-81
2021/10/01 09:53:03;;;;;;;6.63;0.98;;;17.50;99.90;;;;;;5033575;28;20651;-84
2021/10/01 09:55:35;;;;;;;1.63;1.10;;;17.30;99.90;;;;;;5033263;28;20199;-80
2021/10/01 09:58:03;;;;;;;3.28;1.25;;;17.20;99.90;;;;;;5033525;28;20176;-80
2021/10/01 10:00:52;;;;;;;3.22;1.20;;;17.30;99.90;;;;;;5035520;28;20198;-82
2021/10/01 10:03:24;;;;;;;3.58;1.38;;;17.70;99.90;;;;;;5035661;28;20265;-79
2021/10/01 10:06:02;;;;;;;3.75;2.20;;;17.80;99.90;;;;;;5034454;28;20180;-82
2021/10/01 10:08:35;;;;;;;2.17;1.98;;;17.90;99.90;;;;;;5034153;28;20172;-79
2021/10/01 10:11:06;;;;;;;4.05;1.52;;;17.80;99.90;;;;;;5035069;28;20191;-80
2021/10/01 10:13:52;;;;;;;11.60;1.25;;;17.90;99.90;;;;;;5033945;28;20167;-80
2021/10/01 10:16:22;;;;;;;6.30;1.38;;;17.80;99.90;;;;;;5035289;28;20210;-81
2021/10/01 10:18:51;;;;;;;7.55;1.08;;;17.80;99.90;;;;;;5034842;28;20223;-80
2021/10/01 10:21:17;;;;;;;4.75;1.42;;;17.80;99.90;;;;;;5034625;28;20194;-78
2021/10/01 10:23:44;;;;;;;3.30;1.50;;;18.10;99.90;;;;;;5034233;28;20156;-82
2021/10/01 10:26:10;;;;;;;3.22;1.40;;;18.20;99.90;;;;;;5035247;28;20221;-80
2021/10/01 10:28:38;;;;;;;3.22;1.48;;;18.10;99.90;;;;;;5037181;28;20660;-81
2021/10/01 10:31:05;;;;;;;5.50;1.20;;;18.10;99.90;;;;;;5035664;28;20194;-79
2021/10/01 10:33:43;;;;;;;8.70;1.10;;;18.10;99.90;;;;;;5035002;28;20266;-81
2021/10/01 10:36:34;;;;;;;3.85;1.35;;;18.20;99.90;;;;;;5035112;28;20214;-84
2021/10/01 10:39:19;;;;;;;13.02;1.33;;;18.40;99.90;;;;;;5035432;28;20602;-83
2021/10/01 10:42:01;;;;;;;6.55;1.45;;;18.30;99.90;;;;;;5034903;28;20163;-78
2021/10/01 10:44:47;;;;;;;6.07;1.20;;;18.40;99.90;;;;;;5035401;28;20217;-83
2021/10/01 10:47:51;;;;;;;4.80;0.93;;;18.20;99.90;;;;;;5034626;28;20171;-80
2021/10/01 10:50:37;;;;;;;2.17;0.95;;;18.30;99.90;;;;;;5029627;28;20286;-82
2021/10/01 10:55:33;;;;;;;2.83;1.13;;;18.60;99.90;;;;;;5034735;28;20273;-85
2021/10/01 10:57:59;;;;;;;2.67;1.08;;;18.60;99.90;;;;;;5033916;28;20171;-82
2021/10/01 11:00:31;;;;;;;4.95;1.27;;;18.60;99.90;;;;;;5038138;28;20267;-83
2021/10/01 11:03:19;;;;;;;4.55;1.30;;;18.70;99.90;;;;;;5034643;28;20156;-82
2021/10/01 11:06:07;;;;;;;4.53;1.02;;;18.70;99.90;;;;;;5036154;28;20214;-86
2021/10/01 11:08:33;;;;;;;7.00;1.17;;;18.70;99.90;;;;;;5035381;28;20230;-83
2021/10/01 11:10:59;;;;;;;4.40;1.27;;;18.50;99.90;;;;;;5035632;28;20180;-85
2021/10/01 11:13:26;;;;;;;6.35;1.42;;;18.60;99.90;;;;;;5034132;28;20160;-85
2021/10/01 11:16:11;;;;;;;3.83;1.23;;;18.60;99.90;;;;;;5033977;28;20204;-82
2021/10/01 11:18:46;;;;;;;4.68;1.45;;;18.40;99.90;;;;;;5034704;28;20195;-82
2021/10/01 11:21:26;;;;;;;14.32;1.88;;;18.10;99.90;;;;;;5035871;28;20171;-86
2021/10/01 11:24:06;;;;;;;3.17;0.98;;;18.10;99.90;;;;;;5034069;28;20214;-81
2021/10/01 11:26:33;;;;;;;5.18;1.35;;;18.00;99.90;;;;;;5033909;28;20539;-79
2021/10/01 11:29:00;;;;;;;9.30;1.75;;;18.00;99.90;;;;;;5032632;28;20215;-80
2021/10/01 11:31:40;;;;;;;5.28;1.88;;;18.10;99.90;;;;;;5033091;28;20237;-81
2021/10/01 11:34:06;;;;;;;6.60;1.55;;;18.30;99.90;;;;;;5035774;28;20190;-79
2021/10/01 11:36:36;;;;;;;9.75;1.33;;;18.30;99.90;;;;;;5037067;28;20211;-80
2021/10/01 11:39:15;;;;;;;7.88;1.73;;;18.20;99.90;;;;;;5036727;28;20322;-82
2021/10/01 11:41:47;;;;;;;9.57;1.25;;;18.30;99.90;;;;;;5036071;28;20168;-79
2021/10/01 11:44:13;;;;;;;5.72;1.48;;;18.40;99.90;;;;;;5037168;28;20332;-79
2021/10/01 11:46:46;;;;;;;194.07;14.02;;;18.60;99.90;;;;;;5037267;28;20267;-84
2021/10/01 11:49:19;;;;;;;6.70;2.25;;;18.50;99.90;;;;;;5036478;28;20194;-82
2021/10/01 11:52:04;;;;;;;17.52;2.13;;;18.60;99.90;;;;;;5037218;28;20168;-81
2021/10/01 11:54:30;;;;;;;67.90;6.93;;;18.50;99.90;;;;;;5037223;28;20210;-80
2021/10/01 11:57:02;;;;;;;113.60;10.73;;;18.60;99.90;;;;;;5036488;28;20211;-81
2021/10/01 12:00:04;;;;;;;19.08;3.05;;;18.60;99.90;;;;;;5037462;28;20675;-82
2021/10/01 12:02:44;;;;;;;3.15;1.17;;;18.50;99.90;;;;;;5036920;28;20163;-80
2021/10/01 12:05:33;;;;;;;16.65;1.30;;;18.70;99.90;;;;;;5036532;28;20178;-84
2021/10/01 12:08:04;;;;;;;7.55;1.85;;;18.50;99.90;;;;;;5036546;28;20171;-82
2021/10/01 12:10:41;;;;;;;2.20;1.38;;;18.50;99.90;;;;;;5036597;28;20192;-80
2021/10/01 12:13:13;;;;;;;8.75;1.73;;;18.40;99.90;;;;;;5037367;28;20187;-79
2021/10/01 12:15:45;;;;;;;1.88;0.93;;;18.30;99.90;;;;;;5036527;28;20660;-80
2021/10/01 12:18:31;;;;;;;4.35;1.23;;;18.40;99.90;;;;;;5036149;28;20180;-84
2021/10/01 12:20:59;;;;;;;6.50;1.20;;;18.40;99.90;;;;;;5036905;28;20166;-79
2021/10/01 12:23:31;;;;;;;4.85;1.88;;;18.60;99.90;;;;;;5035881;28;20194;-80
2021/10/01 12:26:21;;;;;;;7.00;1.20;;;18.70;99.90;;;;;;5036191;28;20246;-80
2021/10/01 12:29:20;;;;;;;11.35;1.58;;;18.70;99.90;;;;;;5035853;28;20192;-79
2021/10/01 12:31:58;;;;;;;5.68;1.67;;;18.70;99.90;;;;;;5036003;28;20659;-81
2021/10/01 12:34:34;;;;;;;3.80;1.38;;;18.90;99.90;;;;;;5034043;28;20271;-79
2021/10/01 12:37:09;;;;;;;2.10;0.90;;;19.00;99.90;;;;;;5035277;28;20199;-81
2021/10/01 12:39:37;;;;;;;8.45;1.20;;;18.70;99.90;;;;;;5035612;28;20683;-79
2021/10/01 12:42:10;;;;;;;2.75;1.48;;;18.40;99.90;;;;;;5035045;28;20501;-79
2021/10/01 12:44:39;;;;;;;14.98;1.52;;;18.10;99.90;;;;;;5034436;28;20168;-80
2021/10/01 12:47:19;;;;;;;1.50;1.38;;;17.70;99.90;;;;;;5034797;28;20171;-80
2021/10/01 12:50:01;;;;;;;8.18;1.27;;;17.60;99.90;;;;;;5035336;28;20278;-80
2021/10/01 12:52:29;;;;;;;6.53;0.82;;;17.40;99.90;;;;;;5035102;28;20191;-84
2021/10/01 12:54:56;;;;;;;2.30;0.90;;;17.30;99.90;;;;;;5035755;28;20193;-81
2021/10/01 12:57:28;;;;;;;16.52;1.40;;;17.40;99.90;;;;;;5037044;28;20229;-83
2021/10/01 12:59:57;;;;;;;2.75;0.95;;;17.40;99.90;;;;;;5035297;28;20233;-82
2021/10/01 13:02:27;;;;;;;2.80;0.88;;;17.30;99.90;;;;;;5041439;28;20171;-83
2021/10/01 13:04:54;;;;;;;2.22;1.10;;;17.40;99.90;;;;;;5042202;28;20160;-79
2021/10/01 13:07:25;;;;;;;1.63;1.00;;;17.40;99.90;;;;;;5040886;28;20172;-79
2021/10/01 13:09:52;;;;;;;11.95;2.10;;;17.70;99.90;;;;;;5040476;28;20214;-83
2021/10/01 13:12:33;;;;;;;4.68;1.38;;;17.80;99.90;;;;;;5041653;28;20198;-81
2021/10/01 13:15:18;;;;;;;4.13;1.10;;;18.10;99.90;;;;;;5040762;28;20168;-78
2021/10/01 13:18:10;;;;;;;2.22;1.15;;;18.00;99.90;;;;;;5041721;28;20160;-78
2021/10/01 13:20:39;;;;;;;3.47;1.40;;;18.30;99.90;;;;;;5036775;28;20254;-82
2021/10/01 13:23:28;;;;;;;7.82;1.35;;;18.50;99.90;;;;;;5036693;28;20222;-80
2021/10/01 13:25:57;;;;;;;11.00;1.15;;;18.40;99.90;;;;;;5034391;28;20585;-83
2021/10/01 13:28:25;;;;;;;2.92;1.05;;;18.60;99.90;;;;;;5037463;28;20302;-80
2021/10/01 13:30:51;;;;;;;6.03;1.27;;;18.60;99.90;;;;;;5040102;28;20259;-80
2021/10/01 13:33:18;;;;;;;4.60;1.08;;;18.90;99.90;;;;;;5038653;28;20286;-81
2021/10/01 13:35:45;;;;;;;6.28;1.13;;;18.70;99.90;;;;;;5037319;28;20203;-82
2021/10/01 13:38:11;;;;;;;15.07;1.00;;;18.80;99.90;;;;;;5041814;28;20239;-81
2021/10/01 13:40:39;;;;;;;9.23;1.05;;;18.60;99.90;;;;;;5040734;28;20616;-81
2021/10/01 13:43:05;;;;;;;4.10;2.00;;;18.50;99.90;;;;;;5039538;28;20697;-83
2021/10/01 13:45:33;;;;;;;8.90;1.40;;;18.40;99.90;;;;;;5040529;28;20164;-80
2021/10/01 13:47:59;;;;;;;8.75;1.33;;;18.20;99.90;;;;;;5037046;28;20243;-83
2021/10/01 13:50:25;;;;;;;7.43;1.38;;;18.10;99.90;;;;;;5037881;28;20193;-84
2021/10/01 13:52:51;;;;;;;3.65;1.05;;;18.00;99.90;;;;;;5036272;28;20210;-82
2021/10/01 13:55:18;;;;;;;6.85;0.98;;;18.20;99.90;;;;;;5019455;28;20570;-83
2021/10/01 13:57:45;;;;;;;5.53;1.25;;;18.20;99.90;;;;;;5035228;28;20179;-82
2021/10/01 14:00:14;;;;;;;9.52;1.20;;;17.90;99.90;;;;;;5037482;28;20179;-81
2021/10/01 14:02:42;;;;;;;2.50;1.42;;;18.20;99.90;;;;;;5040795;28;20164;-76
2021/10/01 14:05:14;;;;;;;2.15;0.90;;;18.10;99.90;;;;;;5040165;28;20160;-77
2021/10/01 14:07:41;;;;;;;5.60;1.52;;;18.30;99.90;;;;;;5040089;28;20168;-77
2021/10/01 14:10:11;;;;;;;2.22;0.85;;;18.30;99.90;;;;;;5039872;28;20196;-77
2021/10/01 14:12:37;;;;;;;13.35;1.10;;;18.10;99.90;;;;;;5038689;28;20265;-77
2021/10/01 14:15:03;;;;;;;2.03;0.80;;;17.90;99.90;;;;;;5035652;28;20164;-78
2021/10/01 14:17:29;;;;;;;3.30;1.10;;;18.00;99.90;;;;;;5036317;28;20190;-85
2021/10/01 14:19:55;;;;;;;4.55;1.00;;;18.10;99.90;;;;;;5035367;28;20266;-83
2021/10/01 14:22:20;;;;;;;2.13;1.38;;;18.30;99.90;;;;;;5034835;28;20628;-82
2021/10/01 14:24:48;;;;;;;1.63;0.90;;;18.20;99.90;;;;;;5032664;28;20233;-78
2021/10/01 14:27:13;;;;;;;3.13;1.15;;;18.40;99.90;;;;;;5035215;28;20227;-81
2021/10/01 14:29:39;;;;;;;3.25;1.05;;;18.30;99.90;;;;;;5033880;28;20199;-78
2021/10/01 14:32:05;;;;;;;2.20;1.00;;;18.20;99.90;;;;;;5033582;28;20167;-79
2021/10/01 14:34:31;;;;;;;3.20;1.20;;;18.30;99.90;;;;;;5034888;28;20601;-82
2021/10/01 14:36:57;;;;;;;2.80;1.05;;;18.50;99.90;;;;;;5035511;28;20196;-76
2021/10/01 14:39:22;;;;;;;3.65;1.13;;;18.50;99.90;;;;;;5033979;28;20191;-84
2021/10/01 14:41:48;;;;;;;8.15;1.13;;;18.50;99.90;;;;;;5034599;28;20168;-81